sensor_id;sensor_type;location;lat;lon;timestamp;P1;durP1;ratioP1;P2;durP2;ratioP2
6386;SDS011;3226;42.162;24.756;2023-04-03T00:00:47;7.13;;;6.83;;
6386;SDS011;3226;42.162;24.756;2023-04-03T00:03:15;6.03;;;5.83;;
6386;SDS011;3226;42.162;24.756;2023-04-03T00:05:45;6.20;;;6.00;;
6386;SDS011;3226;42.162;24.756;2023-04-03T00:08:13;6.57;;;6.27;;
6386;SDS011;3226;42.162;24.756;2023-04-03T00:10:41;6.70;;;6.40;;
6386;SDS011;3226;42.162;24.756;2023-04-03T00:13:10;6.20;;;6.00;;
6386;SDS011;3226;42.162;24.756;2023-04-03T00:15:38;6.00;;;5.80;;
6386;SDS011;3226;42.162;24.756;2023-04-03T00:18:06;6.90;;;6.60;;
6386;SDS011;3226;42.162;24.756;2023-04-03T00:20:34;5.73;;;5.53;;
6386;SDS011;3226;42.162;24.756;2023-04-03T00:23:04;6.13;;;5.93;;
6386;SDS011;3226;42.162;24.756;2023-04-03T00:25:32;5.53;;;5.33;;
6386;SDS011;3226;42.162;24.756;2023-04-03T00:28:01;5.77;;;5.57;;
6386;SDS011;3226;42.162;24.756;2023-04-03T00:30:29;6.83;;;6.53;;
6386;SDS011;3226;42.162;24.756;2023-04-03T00:32:57;5.90;;;5.70;;
6386;SDS011;3226;42.162;24.756;2023-04-03T00:35:27;5.73;;;5.53;;
6386;SDS011;3226;42.162;24.756;2023-04-03T00:37:56;6.40;;;6.10;;
6386;SDS011;3226;42.162;24.756;2023-04-03T00:40:26;7.40;;;7.10;;
6386;SDS011;3226;42.162;24.756;2023-04-03T00:42:55;6.47;;;6.17;;
6386;SDS011;3226;42.162;24.756;2023-04-03T00:45:32;6.53;;;6.23;;
6386;SDS011;3226;42.162;24.756;2023-04-03T00:48:02;5.97;;;5.77;;
6386;SDS011;3226;42.162;24.756;2023-04-03T00:50:34;6.17;;;5.97;;
6386;SDS011;3226;42.162;24.756;2023-04-03T00:53:06;6.70;;;6.40;;
6386;SDS011;3226;42.162;24.756;2023-04-03T00:55:39;7.13;;;6.83;;
6386;SDS011;3226;42.162;24.756;2023-04-03T00:58:08;6.47;;;6.17;;
6386;SDS011;3226;42.162;24.756;2023-04-03T01:00:36;6.07;;;5.87;;
6386;SDS011;3226;42.162;24.756;2023-04-03T01:03:07;6.53;;;6.23;;
6386;SDS011;3226;42.162;24.756;2023-04-03T01:05:35;7.10;;;6.80;;
6386;SDS011;3226;42.162;24.756;2023-04-03T01:08:03;6.43;;;6.17;;
6386;SDS011;3226;42.162;24.756;2023-04-03T01:10:32;5.87;;;5.67;;
6386;SDS011;3226;42.162;24.756;2023-04-03T01:13:02;5.80;;;5.60;;
6386;SDS011;3226;42.162;24.756;2023-04-03T01:15:46;6.00;;;5.80;;
6386;SDS011;3226;42.162;24.756;2023-04-03T01:18:14;6.13;;;5.93;;
6386;SDS011;3226;42.162;24.756;2023-04-03T01:23:48;6.60;;;6.30;;
6386;SDS011;3226;42.162;24.756;2023-04-03T01:26:27;6.03;;;5.83;;
6386;SDS011;3226;42.162;24.756;2023-04-03T01:28:58;6.07;;;5.87;;
6386;SDS011;3226;42.162;24.756;2023-04-03T01:31:27;7.07;;;6.77;;
6386;SDS011;3226;42.162;24.756;2023-04-03T01:33:59;6.43;;;6.13;;
6386;SDS011;3226;42.162;24.756;2023-04-03T01:36:29;6.07;;;5.87;;
6386;SDS011;3226;42.162;24.756;2023-04-03T01:38:59;6.17;;;5.97;;
6386;SDS011;3226;42.162;24.756;2023-04-03T01:41:27;6.70;;;6.40;;
6386;SDS011;3226;42.162;24.756;2023-04-03T01:43:56;5.80;;;5.60;;
6386;SDS011;3226;42.162;24.756;2023-04-03T01:46:24;7.30;;;7.00;;
6386;SDS011;3226;42.162;24.756;2023-04-03T01:48:51;6.73;;;6.43;;
6386;SDS011;3226;42.162;24.756;2023-04-03T01:51:21;6.47;;;6.17;;
6386;SDS011;3226;42.162;24.756;2023-04-03T01:53:49;6.77;;;6.47;;
6386;SDS011;3226;42.162;24.756;2023-04-03T01:56:17;6.47;;;6.17;;
6386;SDS011;3226;42.162;24.756;2023-04-03T01:58:46;7.20;;;6.90;;
6386;SDS011;3226;42.162;24.756;2023-04-03T02:01:14;6.63;;;6.33;;
6386;SDS011;3226;42.162;24.756;2023-04-03T02:03:42;7.07;;;6.77;;
6386;SDS011;3226;42.162;24.756;2023-04-03T02:06:10;6.20;;;6.00;;
6386;SDS011;3226;42.162;24.756;2023-04-03T02:08:39;6.43;;;6.13;;
6386;SDS011;3226;42.162;24.756;2023-04-03T02:11:08;6.23;;;6.03;;
6386;SDS011;3226;42.162;24.756;2023-04-03T02:13:35;7.27;;;6.97;;
6386;SDS011;3226;42.162;24.756;2023-04-03T02:16:07;6.57;;;6.27;;
6386;SDS011;3226;42.162;24.756;2023-04-03T02:18:37;6.23;;;6.03;;
6386;SDS011;3226;42.162;24.756;2023-04-03T02:21:06;6.83;;;6.53;;
6386;SDS011;3226;42.162;24.756;2023-04-03T02:23:34;6.57;;;6.27;;
6386;SDS011;3226;42.162;24.756;2023-04-03T02:26:08;7.13;;;6.83;;
6386;SDS011;3226;42.162;24.756;2023-04-03T02:28:38;7.33;;;7.03;;
6386;SDS011;3226;42.162;24.756;2023-04-03T02:31:07;6.83;;;6.53;;
6386;SDS011;3226;42.162;24.756;2023-04-03T02:33:37;7.33;;;7.03;;
6386;SDS011;3226;42.162;24.756;2023-04-03T02:36:06;6.90;;;6.60;;
6386;SDS011;3226;42.162;24.756;2023-04-03T02:38:34;6.27;;;6.03;;
6386;SDS011;3226;42.162;24.756;2023-04-03T02:41:03;6.97;;;6.67;;
6386;SDS011;3226;42.162;24.756;2023-04-03T02:43:34;6.60;;;6.30;;
6386;SDS011;3226;42.162;24.756;2023-04-03T02:46:02;6.60;;;6.30;;
6386;SDS011;3226;42.162;24.756;2023-04-03T02:48:31;7.13;;;6.83;;
6386;SDS011;3226;42.162;24.756;2023-04-03T02:50:59;7.90;;;7.60;;
6386;SDS011;3226;42.162;24.756;2023-04-03T02:53:27;7.73;;;7.43;;
6386;SDS011;3226;42.162;24.756;2023-04-03T02:55:55;7.50;;;7.20;;
6386;SDS011;3226;42.162;24.756;2023-04-03T02:58:23;8.03;;;7.73;;
6386;SDS011;3226;42.162;24.756;2023-04-03T03:00:52;7.87;;;7.57;;
6386;SDS011;3226;42.162;24.756;2023-04-03T03:03:21;7.57;;;7.27;;
6386;SDS011;3226;42.162;24.756;2023-04-03T03:05:49;7.67;;;7.37;;
6386;SDS011;3226;42.162;24.756;2023-04-03T03:08:17;7.40;;;7.10;;
6386;SDS011;3226;42.162;24.756;2023-04-03T03:10:46;6.63;;;6.33;;
6386;SDS011;3226;42.162;24.756;2023-04-03T03:13:14;7.90;;;7.60;;
6386;SDS011;3226;42.162;24.756;2023-04-03T03:15:42;7.30;;;7.00;;
6386;SDS011;3226;42.162;24.756;2023-04-03T03:18:11;7.87;;;7.47;;
6386;SDS011;3226;42.162;24.756;2023-04-03T03:20:39;7.03;;;6.73;;
6386;SDS011;3226;42.162;24.756;2023-04-03T03:23:07;6.77;;;6.47;;
6386;SDS011;3226;42.162;24.756;2023-04-03T03:25:37;6.80;;;6.50;;
6386;SDS011;3226;42.162;24.756;2023-04-03T03:28:06;7.27;;;6.97;;
6386;SDS011;3226;42.162;24.756;2023-04-03T03:30:34;7.53;;;7.23;;
6386;SDS011;3226;42.162;24.756;2023-04-03T03:33:02;6.90;;;6.60;;
6386;SDS011;3226;42.162;24.756;2023-04-03T03:35:32;7.20;;;6.90;;
6386;SDS011;3226;42.162;24.756;2023-04-03T03:38:01;8.90;;;8.50;;
6386;SDS011;3226;42.162;24.756;2023-04-03T03:40:29;8.20;;;7.90;;
6386;SDS011;3226;42.162;24.756;2023-04-03T03:42:57;7.67;;;7.37;;
6386;SDS011;3226;42.162;24.756;2023-04-03T03:45:26;6.27;;;6.03;;
6386;SDS011;3226;42.162;24.756;2023-04-03T03:47:54;7.03;;;6.73;;
6386;SDS011;3226;42.162;24.756;2023-04-03T03:50:22;7.20;;;6.90;;
6386;SDS011;3226;42.162;24.756;2023-04-03T03:52:51;7.50;;;7.20;;
6386;SDS011;3226;42.162;24.756;2023-04-03T03:55:19;7.33;;;7.03;;
6386;SDS011;3226;42.162;24.756;2023-04-03T03:57:48;7.47;;;7.17;;
6386;SDS011;3226;42.162;24.756;2023-04-03T04:00:16;7.23;;;6.93;;
6386;SDS011;3226;42.162;24.756;2023-04-03T04:02:44;7.70;;;7.40;;
6386;SDS011;3226;42.162;24.756;2023-04-03T04:05:12;7.30;;;7.00;;
6386;SDS011;3226;42.162;24.756;2023-04-03T04:07:40;6.63;;;6.33;;
6386;SDS011;3226;42.162;24.756;2023-04-03T04:10:09;7.13;;;6.83;;
6386;SDS011;3226;42.162;24.756;2023-04-03T04:12:37;7.33;;;7.03;;
6386;SDS011;3226;42.162;24.756;2023-04-03T04:15:06;7.50;;;7.20;;
6386;SDS011;3226;42.162;24.756;2023-04-03T04:17:34;7.63;;;7.33;;
6386;SDS011;3226;42.162;24.756;2023-04-03T04:20:03;7.97;;;7.67;;
6386;SDS011;3226;42.162;24.756;2023-04-03T04:22:32;7.27;;;6.97;;
6386;SDS011;3226;42.162;24.756;2023-04-03T04:25:00;7.50;;;7.20;;
6386;SDS011;3226;42.162;24.756;2023-04-03T04:27:29;7.20;;;6.90;;
6386;SDS011;3226;42.162;24.756;2023-04-03T04:29:57;7.73;;;7.43;;
6386;SDS011;3226;42.162;24.756;2023-04-03T04:32:25;7.37;;;7.07;;
6386;SDS011;3226;42.162;24.756;2023-04-03T04:34:53;7.03;;;6.73;;
6386;SDS011;3226;42.162;24.756;2023-04-03T04:37:21;6.97;;;6.67;;
6386;SDS011;3226;42.162;24.756;2023-04-03T04:39:49;7.07;;;6.77;;
6386;SDS011;3226;42.162;24.756;2023-04-03T04:42:17;7.03;;;6.73;;
6386;SDS011;3226;42.162;24.756;2023-04-03T04:44:47;7.77;;;7.47;;
6386;SDS011;3226;42.162;24.756;2023-04-03T04:47:14;7.57;;;7.27;;
6386;SDS011;3226;42.162;24.756;2023-04-03T04:49:42;7.80;;;7.50;;
6386;SDS011;3226;42.162;24.756;2023-04-03T04:52:10;8.73;;;8.33;;
6386;SDS011;3226;42.162;24.756;2023-04-03T04:54:38;7.37;;;7.07;;
6386;SDS011;3226;42.162;24.756;2023-04-03T04:57:06;7.37;;;7.07;;
6386;SDS011;3226;42.162;24.756;2023-04-03T04:59:34;7.67;;;7.37;;
6386;SDS011;3226;42.162;24.756;2023-04-03T05:02:04;8.13;;;7.83;;
6386;SDS011;3226;42.162;24.756;2023-04-03T05:04:32;6.77;;;6.47;;
6386;SDS011;3226;42.162;24.756;2023-04-03T05:07:00;7.73;;;7.43;;
6386;SDS011;3226;42.162;24.756;2023-04-03T05:09:28;7.33;;;7.03;;
6386;SDS011;3226;42.162;24.756;2023-04-03T05:11:56;7.03;;;6.73;;
6386;SDS011;3226;42.162;24.756;2023-04-03T05:14:24;7.47;;;7.17;;
6386;SDS011;3226;42.162;24.756;2023-04-03T05:16:52;7.30;;;7.00;;
6386;SDS011;3226;42.162;24.756;2023-04-03T05:19:21;7.53;;;7.23;;
6386;SDS011;3226;42.162;24.756;2023-04-03T05:21:49;7.87;;;7.57;;
6386;SDS011;3226;42.162;24.756;2023-04-03T05:24:17;7.70;;;7.40;;
6386;SDS011;3226;42.162;24.756;2023-04-03T05:26:45;8.57;;;8.17;;
6386;SDS011;3226;42.162;24.756;2023-04-03T05:29:13;7.00;;;6.70;;
6386;SDS011;3226;42.162;24.756;2023-04-03T05:31:41;7.03;;;6.73;;
6386;SDS011;3226;42.162;24.756;2023-04-03T05:34:09;8.67;;;8.27;;
6386;SDS011;3226;42.162;24.756;2023-04-03T05:36:38;7.53;;;7.23;;
6386;SDS011;3226;42.162;24.756;2023-04-03T05:39:07;8.03;;;7.73;;
6386;SDS011;3226;42.162;24.756;2023-04-03T05:41:35;7.20;;;6.90;;
6386;SDS011;3226;42.162;24.756;2023-04-03T05:44:03;7.17;;;6.87;;
6386;SDS011;3226;42.162;24.756;2023-04-03T05:46:31;7.70;;;7.40;;
6386;SDS011;3226;42.162;24.756;2023-04-03T05:48:59;7.40;;;7.10;;
6386;SDS011;3226;42.162;24.756;2023-04-03T05:51:28;6.93;;;6.63;;
6386;SDS011;3226;42.162;24.756;2023-04-03T05:54:03;7.50;;;7.20;;
6386;SDS011;3226;42.162;24.756;2023-04-03T05:56:37;7.20;;;6.90;;
6386;SDS011;3226;42.162;24.756;2023-04-03T05:59:05;7.43;;;7.13;;
6386;SDS011;3226;42.162;24.756;2023-04-03T06:01:33;7.47;;;7.17;;
6386;SDS011;3226;42.162;24.756;2023-04-03T06:04:01;7.27;;;6.97;;
6386;SDS011;3226;42.162;24.756;2023-04-03T06:06:42;7.17;;;6.87;;
6386;SDS011;3226;42.162;24.756;2023-04-03T06:09:13;6.93;;;6.63;;
6386;SDS011;3226;42.162;24.756;2023-04-03T06:11:41;6.60;;;6.30;;
6386;SDS011;3226;42.162;24.756;2023-04-03T06:14:09;7.10;;;6.80;;
6386;SDS011;3226;42.162;24.756;2023-04-03T06:16:37;6.77;;;6.47;;
6386;SDS011;3226;42.162;24.756;2023-04-03T06:19:07;7.23;;;6.93;;
6386;SDS011;3226;42.162;24.756;2023-04-03T06:21:36;7.97;;;7.67;;
6386;SDS011;3226;42.162;24.756;2023-04-03T06:24:04;7.73;;;7.43;;
6386;SDS011;3226;42.162;24.756;2023-04-03T06:26:34;7.90;;;7.60;;
6386;SDS011;3226;42.162;24.756;2023-04-03T06:29:02;9.50;;;9.10;;
6386;SDS011;3226;42.162;24.756;2023-04-03T06:31:30;9.07;;;8.67;;
6386;SDS011;3226;42.162;24.756;2023-04-03T06:33:59;8.17;;;7.87;;
6386;SDS011;3226;42.162;24.756;2023-04-03T06:36:27;8.13;;;7.83;;
6386;SDS011;3226;42.162;24.756;2023-04-03T06:38:56;8.70;;;8.30;;
6386;SDS011;3226;42.162;24.756;2023-04-03T06:41:24;8.30;;;7.97;;
6386;SDS011;3226;42.162;24.756;2023-04-03T06:43:54;9.37;;;8.97;;
6386;SDS011;3226;42.162;24.756;2023-04-03T06:46:24;8.00;;;7.70;;
6386;SDS011;3226;42.162;24.756;2023-04-03T06:48:53;6.77;;;6.47;;
6386;SDS011;3226;42.162;24.756;2023-04-03T06:51:22;6.10;;;5.90;;
6386;SDS011;3226;42.162;24.756;2023-04-03T06:53:52;6.90;;;6.60;;
6386;SDS011;3226;42.162;24.756;2023-04-03T06:56:22;7.70;;;7.40;;
6386;SDS011;3226;42.162;24.756;2023-04-03T06:58:51;7.00;;;6.70;;
6386;SDS011;3226;42.162;24.756;2023-04-03T07:01:22;6.93;;;6.63;;
6386;SDS011;3226;42.162;24.756;2023-04-03T07:03:51;6.67;;;6.37;;
6386;SDS011;3226;42.162;24.756;2023-04-03T07:06:19;6.40;;;6.10;;
6386;SDS011;3226;42.162;24.756;2023-04-03T07:08:47;7.17;;;6.87;;
6386;SDS011;3226;42.162;24.756;2023-04-03T07:11:15;5.77;;;5.57;;
6386;SDS011;3226;42.162;24.756;2023-04-03T07:13:44;6.57;;;6.27;;
6386;SDS011;3226;42.162;24.756;2023-04-03T07:16:12;7.07;;;6.77;;
6386;SDS011;3226;42.162;24.756;2023-04-03T07:18:41;5.97;;;5.77;;
6386;SDS011;3226;42.162;24.756;2023-04-03T07:21:09;6.53;;;6.23;;
6386;SDS011;3226;42.162;24.756;2023-04-03T07:23:37;6.20;;;5.97;;
6386;SDS011;3226;42.162;24.756;2023-04-03T07:26:05;6.77;;;6.47;;
6386;SDS011;3226;42.162;24.756;2023-04-03T07:28:34;5.80;;;5.60;;
6386;SDS011;3226;42.162;24.756;2023-04-03T07:31:05;7.33;;;7.03;;
6386;SDS011;3226;42.162;24.756;2023-04-03T07:33:35;5.73;;;5.53;;
6386;SDS011;3226;42.162;24.756;2023-04-03T07:36:05;6.87;;;6.57;;
6386;SDS011;3226;42.162;24.756;2023-04-03T07:38:34;6.67;;;6.37;;
6386;SDS011;3226;42.162;24.756;2023-04-03T07:41:03;7.23;;;6.93;;
6386;SDS011;3226;42.162;24.756;2023-04-03T07:43:32;7.00;;;6.70;;
6386;SDS011;3226;42.162;24.756;2023-04-03T07:46:00;5.87;;;5.67;;
6386;SDS011;3226;42.162;24.756;2023-04-03T07:48:28;7.03;;;6.73;;
6386;SDS011;3226;42.162;24.756;2023-04-03T07:50:58;6.63;;;6.33;;
6386;SDS011;3226;42.162;24.756;2023-04-03T07:53:28;6.37;;;6.10;;
6386;SDS011;3226;42.162;24.756;2023-04-03T07:56:00;6.50;;;6.20;;
6386;SDS011;3226;42.162;24.756;2023-04-03T07:58:29;6.60;;;6.30;;
6386;SDS011;3226;42.162;24.756;2023-04-03T08:00:57;6.63;;;6.33;;
6386;SDS011;3226;42.162;24.756;2023-04-03T08:03:25;7.13;;;6.83;;
6386;SDS011;3226;42.162;24.756;2023-04-03T08:05:53;6.83;;;6.53;;
6386;SDS011;3226;42.162;24.756;2023-04-03T08:08:21;7.03;;;6.73;;
6386;SDS011;3226;42.162;24.756;2023-04-03T08:10:52;6.43;;;6.13;;
6386;SDS011;3226;42.162;24.756;2023-04-03T08:13:21;6.90;;;6.60;;
6386;SDS011;3226;42.162;24.756;2023-04-03T08:15:49;7.87;;;7.57;;
6386;SDS011;3226;42.162;24.756;2023-04-03T08:18:17;6.13;;;5.93;;
6386;SDS011;3226;42.162;24.756;2023-04-03T08:20:48;6.57;;;6.27;;
6386;SDS011;3226;42.162;24.756;2023-04-03T08:23:15;6.83;;;6.53;;
6386;SDS011;3226;42.162;24.756;2023-04-03T08:25:45;6.07;;;5.87;;
6386;SDS011;3226;42.162;24.756;2023-04-03T08:28:14;6.27;;;6.03;;
6386;SDS011;3226;42.162;24.756;2023-04-03T08:30:42;6.60;;;6.30;;
6386;SDS011;3226;42.162;24.756;2023-04-03T08:33:10;7.37;;;7.07;;
6386;SDS011;3226;42.162;24.756;2023-04-03T08:35:39;6.47;;;6.17;;
6386;SDS011;3226;42.162;24.756;2023-04-03T08:38:08;6.13;;;5.93;;
6386;SDS011;3226;42.162;24.756;2023-04-03T08:40:36;6.83;;;6.53;;
6386;SDS011;3226;42.162;24.756;2023-04-03T08:43:10;5.50;;;5.30;;
6386;SDS011;3226;42.162;24.756;2023-04-03T08:45:55;6.67;;;6.37;;
6386;SDS011;3226;42.162;24.756;2023-04-03T08:48:26;6.43;;;6.13;;
6386;SDS011;3226;42.162;24.756;2023-04-03T08:50:59;6.07;;;5.87;;
6386;SDS011;3226;42.162;24.756;2023-04-03T08:53:39;6.00;;;5.80;;
6386;SDS011;3226;42.162;24.756;2023-04-03T08:56:10;6.23;;;6.00;;
6386;SDS011;3226;42.162;24.756;2023-04-03T08:58:46;6.93;;;6.63;;
6386;SDS011;3226;42.162;24.756;2023-04-03T09:01:19;6.03;;;5.83;;
6386;SDS011;3226;42.162;24.756;2023-04-03T09:03:50;7.63;;;7.33;;
6386;SDS011;3226;42.162;24.756;2023-04-03T09:06:20;6.67;;;6.37;;
6386;SDS011;3226;42.162;24.756;2023-04-03T09:08:50;5.80;;;5.60;;
6386;SDS011;3226;42.162;24.756;2023-04-03T09:11:40;6.40;;;6.10;;
6386;SDS011;3226;42.162;24.756;2023-04-03T09:14:18;6.63;;;6.33;;
6386;SDS011;3226;42.162;24.756;2023-04-03T09:16:53;5.90;;;5.70;;
6386;SDS011;3226;42.162;24.756;2023-04-03T09:19:34;6.13;;;5.93;;
6386;SDS011;3226;42.162;24.756;2023-04-03T09:22:11;6.10;;;5.90;;
6386;SDS011;3226;42.162;24.756;2023-04-03T09:24:44;6.53;;;6.23;;
6386;SDS011;3226;42.162;24.756;2023-04-03T09:27:15;6.47;;;6.17;;
6386;SDS011;3226;42.162;24.756;2023-04-03T09:29:44;6.13;;;5.93;;
6386;SDS011;3226;42.162;24.756;2023-04-03T09:32:18;5.97;;;5.77;;
6386;SDS011;3226;42.162;24.756;2023-04-03T09:34:49;7.10;;;6.80;;
6386;SDS011;3226;42.162;24.756;2023-04-03T09:37:33;5.67;;;5.47;;
6386;SDS011;3226;42.162;24.756;2023-04-03T09:40:27;5.93;;;5.73;;
6386;SDS011;3226;42.162;24.756;2023-04-03T09:42:58;5.87;;;5.67;;
6386;SDS011;3226;42.162;24.756;2023-04-03T09:45:30;6.53;;;6.23;;
6386;SDS011;3226;42.162;24.756;2023-04-03T09:48:06;6.00;;;5.80;;
6386;SDS011;3226;42.162;24.756;2023-04-03T09:50:52;6.03;;;5.83;;
6386;SDS011;3226;42.162;24.756;2023-04-03T09:53:27;6.40;;;6.10;;
6386;SDS011;3226;42.162;24.756;2023-04-03T09:56:00;5.80;;;5.60;;
6386;SDS011;3226;42.162;24.756;2023-04-03T09:58:31;6.90;;;6.60;;
6386;SDS011;3226;42.162;24.756;2023-04-03T10:01:27;6.83;;;6.53;;
6386;SDS011;3226;42.162;24.756;2023-04-03T10:04:04;6.70;;;6.40;;
6386;SDS011;3226;42.162;24.756;2023-04-03T10:06:35;5.83;;;5.63;;
6386;SDS011;3226;42.162;24.756;2023-04-03T10:09:13;5.77;;;5.57;;
6386;SDS011;3226;42.162;24.756;2023-04-03T10:11:58;5.80;;;5.60;;
6386;SDS011;3226;42.162;24.756;2023-04-03T10:14:28;6.20;;;6.00;;
6386;SDS011;3226;42.162;24.756;2023-04-03T10:17:01;6.80;;;6.50;;
6386;SDS011;3226;42.162;24.756;2023-04-03T10:19:41;6.80;;;6.50;;
6386;SDS011;3226;42.162;24.756;2023-04-03T10:22:16;5.97;;;5.77;;
6386;SDS011;3226;42.162;24.756;2023-04-03T10:24:52;5.83;;;5.63;;
6386;SDS011;3226;42.162;24.756;2023-04-03T10:27:31;6.07;;;5.87;;
6386;SDS011;3226;42.162;24.756;2023-04-03T10:30:15;6.80;;;6.50;;
6386;SDS011;3226;42.162;24.756;2023-04-03T10:33:00;6.90;;;6.60;;
6386;SDS011;3226;42.162;24.756;2023-04-03T10:35:42;6.87;;;6.57;;
6386;SDS011;3226;42.162;24.756;2023-04-03T10:38:15;6.30;;;6.07;;
6386;SDS011;3226;42.162;24.756;2023-04-03T10:40:51;6.70;;;6.40;;
6386;SDS011;3226;42.162;24.756;2023-04-03T10:43:25;6.73;;;6.43;;
6386;SDS011;3226;42.162;24.756;2023-04-03T10:46:00;5.97;;;5.77;;
6386;SDS011;3226;42.162;24.756;2023-04-03T10:48:45;6.03;;;5.83;;
6386;SDS011;3226;42.162;24.756;2023-04-03T10:51:23;6.13;;;5.93;;
6386;SDS011;3226;42.162;24.756;2023-04-03T10:53:56;5.90;;;5.70;;
6386;SDS011;3226;42.162;24.756;2023-04-03T10:56:30;6.03;;;5.83;;
6386;SDS011;3226;42.162;24.756;2023-04-03T10:59:08;6.63;;;6.33;;
6386;SDS011;3226;42.162;24.756;2023-04-03T11:01:50;5.87;;;5.67;;
6386;SDS011;3226;42.162;24.756;2023-04-03T11:04:23;6.60;;;6.30;;
6386;SDS011;3226;42.162;24.756;2023-04-03T11:06:57;7.10;;;6.80;;
6386;SDS011;3226;42.162;24.756;2023-04-03T11:09:30;5.90;;;5.70;;
6386;SDS011;3226;42.162;24.756;2023-04-03T11:12:01;6.13;;;5.93;;
6386;SDS011;3226;42.162;24.756;2023-04-03T11:14:32;5.53;;;5.33;;
6386;SDS011;3226;42.162;24.756;2023-04-03T11:17:10;5.90;;;5.70;;
6386;SDS011;3226;42.162;24.756;2023-04-03T11:19:49;5.53;;;5.33;;
6386;SDS011;3226;42.162;24.756;2023-04-03T11:22:25;6.67;;;6.37;;
6386;SDS011;3226;42.162;24.756;2023-04-03T11:24:57;6.93;;;6.63;;
6386;SDS011;3226;42.162;24.756;2023-04-03T11:27:33;5.87;;;5.67;;
6386;SDS011;3226;42.162;24.756;2023-04-03T11:30:09;6.57;;;6.27;;
6386;SDS011;3226;42.162;24.756;2023-04-03T11:35:38;5.77;;;5.57;;
6386;SDS011;3226;42.162;24.756;2023-04-03T11:38:13;8.00;;;7.70;;
6386;SDS011;3226;42.162;24.756;2023-04-03T11:40:46;7.17;;;6.87;;
6386;SDS011;3226;42.162;24.756;2023-04-03T11:43:20;6.47;;;6.17;;
6386;SDS011;3226;42.162;24.756;2023-04-03T11:45:56;6.17;;;5.93;;
6386;SDS011;3226;42.162;24.756;2023-04-03T11:48:48;6.00;;;5.80;;
6386;SDS011;3226;42.162;24.756;2023-04-03T12:03:33;5.83;;;5.63;;
6386;SDS011;3226;42.162;24.756;2023-04-03T12:09:26;5.60;;;5.40;;
6386;SDS011;3226;42.162;24.756;2023-04-03T12:11:57;6.87;;;6.57;;
6386;SDS011;3226;42.162;24.756;2023-04-03T12:14:28;7.63;;;7.33;;
6386;SDS011;3226;42.162;24.756;2023-04-03T12:16:57;5.67;;;5.47;;
6386;SDS011;3226;42.162;24.756;2023-04-03T12:19:30;5.57;;;5.37;;
6386;SDS011;3226;42.162;24.756;2023-04-03T12:22:06;6.13;;;5.93;;
6386;SDS011;3226;42.162;24.756;2023-04-03T12:24:37;6.97;;;6.67;;
6386;SDS011;3226;42.162;24.756;2023-04-03T12:27:14;7.13;;;6.83;;
6386;SDS011;3226;42.162;24.756;2023-04-03T12:29:50;8.03;;;7.73;;
6386;SDS011;3226;42.162;24.756;2023-04-03T12:32:26;7.43;;;7.13;;
6386;SDS011;3226;42.162;24.756;2023-04-03T12:35:16;6.10;;;5.90;;
6386;SDS011;3226;42.162;24.756;2023-04-03T12:41:18;6.93;;;6.63;;
6386;SDS011;3226;42.162;24.756;2023-04-03T12:43:59;6.47;;;6.17;;
6386;SDS011;3226;42.162;24.756;2023-04-03T12:46:37;6.77;;;6.47;;
6386;SDS011;3226;42.162;24.756;2023-04-03T12:49:13;7.40;;;7.10;;
6386;SDS011;3226;42.162;24.756;2023-04-03T12:51:50;6.10;;;5.83;;
6386;SDS011;3226;42.162;24.756;2023-04-03T12:54:19;8.30;;;8.00;;
6386;SDS011;3226;42.162;24.756;2023-04-03T12:59:47;7.93;;;7.63;;
6386;SDS011;3226;42.162;24.756;2023-04-03T13:02:23;6.63;;;6.33;;
6386;SDS011;3226;42.162;24.756;2023-04-03T13:04:53;7.03;;;6.73;;
6386;SDS011;3226;42.162;24.756;2023-04-03T13:07:25;7.30;;;7.00;;
6386;SDS011;3226;42.162;24.756;2023-04-03T13:09:59;7.50;;;7.20;;
6386;SDS011;3226;42.162;24.756;2023-04-03T13:12:30;8.17;;;7.87;;
6386;SDS011;3226;42.162;24.756;2023-04-03T13:15:02;7.23;;;6.93;;
6386;SDS011;3226;42.162;24.756;2023-04-03T13:17:40;22.37;;;21.27;;
6386;SDS011;3226;42.162;24.756;2023-04-03T13:20:10;8.27;;;7.90;;
6386;SDS011;3226;42.162;24.756;2023-04-03T13:22:47;7.77;;;7.47;;
6386;SDS011;3226;42.162;24.756;2023-04-03T13:25:17;8.37;;;8.00;;
6386;SDS011;3226;42.162;24.756;2023-04-03T13:27:48;12.63;;;12.03;;
6386;SDS011;3226;42.162;24.756;2023-04-03T13:30:28;14.30;;;13.67;;
6386;SDS011;3226;42.162;24.756;2023-04-03T13:32:59;7.57;;;7.27;;
6386;SDS011;3226;42.162;24.756;2023-04-03T13:35:31;7.30;;;7.00;;
6386;SDS011;3226;42.162;24.756;2023-04-03T13:38:04;8.20;;;7.90;;
6386;SDS011;3226;42.162;24.756;2023-04-03T13:40:35;6.93;;;6.63;;
6386;SDS011;3226;42.162;24.756;2023-04-03T13:43:17;9.20;;;8.80;;
6386;SDS011;3226;42.162;24.756;2023-04-03T13:45:55;7.53;;;7.23;;
6386;SDS011;3226;42.162;24.756;2023-04-03T13:48:26;8.53;;;8.13;;
6386;SDS011;3226;42.162;24.756;2023-04-03T13:50:56;8.03;;;7.73;;
6386;SDS011;3226;42.162;24.756;2023-04-03T13:53:27;7.87;;;7.57;;
6386;SDS011;3226;42.162;24.756;2023-04-03T13:56:04;8.30;;;7.93;;
6386;SDS011;3226;42.162;24.756;2023-04-03T13:58:35;8.57;;;8.17;;
6386;SDS011;3226;42.162;24.756;2023-04-03T14:01:11;9.97;;;9.57;;
6386;SDS011;3226;42.162;24.756;2023-04-03T14:03:50;9.57;;;9.17;;
6386;SDS011;3226;42.162;24.756;2023-04-03T14:06:22;7.33;;;7.03;;
6386;SDS011;3226;42.162;24.756;2023-04-03T14:08:50;9.03;;;8.63;;
6386;SDS011;3226;42.162;24.756;2023-04-03T14:11:20;6.97;;;6.67;;
6386;SDS011;3226;42.162;24.756;2023-04-03T14:13:51;6.57;;;6.27;;
6386;SDS011;3226;42.162;24.756;2023-04-03T14:16:21;5.80;;;5.60;;
6386;SDS011;3226;42.162;24.756;2023-04-03T14:18:52;6.40;;;6.10;;
6386;SDS011;3226;42.162;24.756;2023-04-03T14:21:20;6.13;;;5.93;;
6386;SDS011;3226;42.162;24.756;2023-04-03T14:23:49;6.97;;;6.67;;
6386;SDS011;3226;42.162;24.756;2023-04-03T14:26:18;6.87;;;6.57;;
6386;SDS011;3226;42.162;24.756;2023-04-03T14:28:49;7.00;;;6.70;;
6386;SDS011;3226;42.162;24.756;2023-04-03T14:31:21;8.27;;;7.93;;
6386;SDS011;3226;42.162;24.756;2023-04-03T14:33:49;6.40;;;6.13;;
6386;SDS011;3226;42.162;24.756;2023-04-03T14:36:18;7.00;;;6.70;;
6386;SDS011;3226;42.162;24.756;2023-04-03T14:38:49;6.07;;;5.87;;
6386;SDS011;3226;42.162;24.756;2023-04-03T14:41:18;6.03;;;5.83;;
6386;SDS011;3226;42.162;24.756;2023-04-03T14:43:48;7.67;;;7.37;;
6386;SDS011;3226;42.162;24.756;2023-04-03T14:46:17;7.10;;;6.80;;
6386;SDS011;3226;42.162;24.756;2023-04-03T14:48:52;9.37;;;8.97;;
6386;SDS011;3226;42.162;24.756;2023-04-03T14:51:20;8.07;;;7.77;;
6386;SDS011;3226;42.162;24.756;2023-04-03T14:53:48;10.27;;;9.83;;
6386;SDS011;3226;42.162;24.756;2023-04-03T14:56:18;12.93;;;12.33;;
6386;SDS011;3226;42.162;24.756;2023-04-03T14:58:51;9.37;;;8.97;;
6386;SDS011;3226;42.162;24.756;2023-04-03T15:01:22;10.30;;;9.90;;
6386;SDS011;3226;42.162;24.756;2023-04-03T15:03:54;18.97;;;18.07;;
6386;SDS011;3226;42.162;24.756;2023-04-03T15:06:23;16.10;;;15.33;;
6386;SDS011;3226;42.162;24.756;2023-04-03T15:08:52;7.23;;;6.93;;
6386;SDS011;3226;42.162;24.756;2023-04-03T15:11:20;9.07;;;8.67;;
6386;SDS011;3226;42.162;24.756;2023-04-03T15:13:48;9.57;;;9.17;;
6386;SDS011;3226;42.162;24.756;2023-04-03T15:16:17;7.90;;;7.60;;
6386;SDS011;3226;42.162;24.756;2023-04-03T15:18:46;14.93;;;14.23;;
6386;SDS011;3226;42.162;24.756;2023-04-03T15:21:16;9.70;;;9.30;;
6386;SDS011;3226;42.162;24.756;2023-04-03T15:23:44;8.17;;;7.87;;
6386;SDS011;3226;42.162;24.756;2023-04-03T15:26:12;13.77;;;13.17;;
6386;SDS011;3226;42.162;24.756;2023-04-03T15:28:41;9.03;;;8.63;;
6386;SDS011;3226;42.162;24.756;2023-04-03T15:31:10;20.83;;;19.83;;
6386;SDS011;3226;42.162;24.756;2023-04-03T15:33:38;20.13;;;19.13;;
6386;SDS011;3226;42.162;24.756;2023-04-03T15:36:06;8.57;;;8.17;;
6386;SDS011;3226;42.162;24.756;2023-04-03T15:38:56;9.67;;;9.27;;
6386;SDS011;3226;42.162;24.756;2023-04-03T15:41:24;8.27;;;7.97;;
6386;SDS011;3226;42.162;24.756;2023-04-03T15:43:52;13.67;;;13.07;;
6386;SDS011;3226;42.162;24.756;2023-04-03T15:46:20;16.87;;;16.07;;
6386;SDS011;3226;42.162;24.756;2023-04-03T15:48:49;17.70;;;16.90;;
6386;SDS011;3226;42.162;24.756;2023-04-03T15:51:17;34.13;;;32.50;;